Nearby METAR Reports

 

KUAO - Aurora, Oregon, USA
Distance from station: SSE 7mi, 12km
Updated: Mon, 27-May-2024 5:53am PDT
Clear
Clear
 Wind from calm
Wind: Calm
Temperature: 46°F , 8°C
Dew Point: 45°F , 7°C
Humidity: 93%
Barometer: 30.16 inHg , 1021.3 hPa
Clouds: Clear
Visibility: 10 miles , 16 km
2024/05/27 12:53 KUAO 271253Z AUTO 00000KT 10SM CLR 08/07 A3016 RMK AO2 SLP213 T00830072 $
KHIO - Hillsboro/Portld, Oregon, USA
Distance from station: NNW 15mi, 24km
Updated: Mon, 27-May-2024 5:53am PDT
Overcast
Overcast
 Wind from calm
Wind: Calm
Temperature: 46°F , 8°C
Dew Point: 46°F , 8°C
Humidity: 100%
Barometer: 30.15 inHg , 1021 hPa
Clouds: Overcast
Visibility: 10 miles , 16 km
Cloud details: Overcast 3100 ft
2024/05/27 12:53 KHIO 271253Z 00000KT 10SM OVC031 08/08 A3015 RMK AO2 SLP209 T00830078
 
KMMV - Mcminnville, Oregon, USA
Distance from station: SW 18mi, 29km
Updated: Mon, 27-May-2024 5:53am PDT
Clear
Clear
 Wind from calm
Wind: Calm
Temperature: 45°F , 7°C
Dew Point: 45°F , 7°C
Humidity: 100%
Barometer: 30.15 inHg , 1021 hPa
Clouds: Clear
Visibility: 10 miles , 16 km
2024/05/27 12:53 KMMV 271253Z AUTO 00000KT 10SM CLR 07/07 A3015 RMK AO2 SLP209 T00720067 $
KPDX - Portland, Oregon, USA
Distance from station: NNE 20mi, 32km
Updated: Mon, 27-May-2024 5:53am PDT
Partly cloudy
Partly cloudy
 Wind from NNW
Wind: NNW 3 mph , 6 km/h
Temperature: 52°F , 11°C
Dew Point: 46°F , 8°C
Humidity: 82%
Barometer: 30.16 inHg , 1021.3 hPa
Clouds: Partly cloudy
Visibility: 10 miles , 16 km
Cloud details: Partly cloudy 23000 ft
2024/05/27 12:53 KPDX 271253Z 34003KT 10SM SCT230 11/08 A3016 RMK AO2 SLP211 T01110083 $
 
KVUO - Vancouver, Washington, USA
Distance from station: NNE 20mi, 33km
Updated: Mon, 27-May-2024 5:53am PDT
Clear
Clear
 Wind from calm
Wind: Calm
Temperature: 50°F , 10°C
Dew Point: 45°F , 7°C
Humidity: 82%
Barometer: 30.17 inHg , 1021.7 hPa
Clouds: Clear
Visibility: 10 miles , 16 km
2024/05/27 12:53 KVUO 271253Z AUTO 00000KT 10SM CLR 10/07 A3017 RMK AO2 SLP216 T01000072
KTTD - Troutdale, Oregon, USA
Distance from station: NE 24mi, 39km
Updated: Mon, 27-May-2024 5:53am PDT
Clear
Clear
 Wind from E
Wind: E 3 mph , 6 km/h
Temperature: 48°F , 9°C
Dew Point: 46°F , 8°C
Humidity: 94%
Barometer: 30.15 inHg , 1021 hPa
Clouds: Clear
Visibility: 10 miles , 16 km
2024/05/27 12:53 KTTD 271253Z AUTO 10003KT 10SM CLR 09/08 A3015 RMK AO2 SLP210 T00940078
 
KSPB - Scappoose, Oregon, USA
Distance from station: N 29mi, 47km
Updated: Mon, 27-May-2024 5:53am PDT
Mostly cloudy
Mostly cloudy
 Wind from calm
Wind: Calm
Barometer: 30.15 inHg , 1021 hPa
Clouds: Mostly cloudy
Visibility: 10 miles , 16 km
Cloud details: Mostly cloudy 3500 ft
2024/05/27 12:53 KSPB 271253Z AUTO 00000KT 10SM BKN035 A3015 RMK AO2 SLPNO $
KSLE - Salem, Oregon, USA
Distance from station: SSW 32mi, 52km
Updated: Mon, 27-May-2024 5:56am PDT
Clear
Clear
 Wind from S
Wind: S 3 mph , 6 km/h
Temperature: 48°F , 9°C
Dew Point: 43°F , 6°C
Humidity: 82%
Barometer: 30.15 inHg , 1021 hPa
Clouds: Clear
Visibility: 10 miles , 16 km
2024/05/27 12:56 KSLE 271256Z AUTO 18003KT 10SM CLR 09/06 A3015 RMK AO2 SLP209 T00940056 $
 
KTMK - Tillamook, Oregon, USA
Distance from station: W 48mi, 78km
Updated: Mon, 27-May-2024 5:55am PDT
Overcast
Overcast
 Wind from calm
Wind: Calm
Temperature: 50°F , 10°C
Dew Point: 50°F , 10°C
Humidity: 100%
Barometer: 30.18 inHg , 1022 hPa
Clouds: Overcast
Visibility: 10 miles , 16 km
Cloud details: Overcast 1900 ft
2024/05/27 12:55 KTMK 271255Z AUTO 00000KT 10SM OVC019 10/10 A3018 RMK AO2